createdAt,value
2023-02-01T00:02:03.278Z,1.63
2023-02-01T00:04:32.272Z,1.67
2023-02-01T00:07:02.812Z,1.74
2023-02-01T00:09:32.918Z,1.81
2023-02-01T00:12:04.990Z,1.89
2023-02-01T00:14:39.615Z,1.86
2023-02-01T00:17:08.912Z,1.88
2023-02-01T00:19:37.695Z,1.91
2023-02-01T00:22:06.590Z,1.83
2023-02-01T00:24:35.578Z,1.70
2023-02-01T00:27:04.573Z,1.62
2023-02-01T00:29:33.565Z,1.55
2023-02-01T00:32:02.348Z,1.56
2023-02-01T00:34:37.080Z,1.64
2023-02-01T00:37:06.992Z,1.68
2023-02-01T00:39:36.292Z,1.68
2023-02-01T00:42:05.389Z,1.71
2023-02-01T00:44:36.538Z,1.76
2023-02-01T00:47:05.342Z,1.77
2023-02-01T00:49:34.112Z,1.78
2023-02-01T00:52:03.815Z,1.81
2023-02-01T00:54:33.838Z,1.85
2023-02-01T00:57:02.642Z,1.83
2023-02-01T00:59:31.732Z,1.83
2023-02-01T01:02:00.780Z,1.82
2023-02-01T01:04:31.136Z,1.79
2023-02-01T01:07:00.332Z,1.77
2023-02-01T01:09:29.437Z,1.79
2023-02-01T01:12:03.747Z,1.79
2023-02-01T01:14:34.192Z,1.77
2023-02-01T05:21:13.181Z,-0.78
2023-02-01T05:24:00.476Z,-0.76
2023-02-01T05:26:29.852Z,-0.84
2023-02-01T05:28:59.097Z,-0.85
2023-02-01T05:31:28.059Z,-0.87
2023-02-01T05:33:57.276Z,-0.87
2023-02-01T05:36:26.363Z,-0.87
2023-02-01T05:38:57.201Z,-0.90
2023-02-01T05:41:26.041Z,-0.92
2023-02-01T05:43:55.070Z,-0.95
2023-02-01T05:46:24.412Z,-0.97
2023-02-01T05:48:53.288Z,-0.90
2023-02-01T05:51:25.507Z,-0.85
2023-02-01T05:53:54.364Z,-0.85
2023-02-01T05:56:23.324Z,-0.84
2023-02-01T05:58:53.140Z,-0.81
2023-02-01T06:01:22.228Z,-0.78
2023-02-01T06:03:51.348Z,-0.79
2023-02-01T06:06:21.033Z,-0.79
2023-02-01T06:08:49.924Z,-0.76
2023-02-01T06:11:31.903Z,-0.71
2023-02-01T06:14:02.043Z,-0.61
2023-02-01T06:16:30.925Z,-0.53
2023-02-01T06:19:00.751Z,-0.42
2023-02-01T06:21:29.655Z,-0.43
2023-02-01T06:23:59.646Z,-0.41
2023-02-01T06:26:29.988Z,-0.33
2023-02-01T06:28:58.877Z,-0.27
2023-02-01T06:31:28.130Z,-0.23
2023-02-01T06:33:58.484Z,-0.17
2023-02-01T06:36:27.991Z,-0.20
2023-02-01T06:38:58.114Z,-0.31
2023-02-01T06:41:29.594Z,-0.37
2023-02-01T06:43:58.771Z,-0.41
2023-02-01T06:46:27.589Z,-0.47
2023-02-01T06:48:57.260Z,-0.49
2023-02-01T06:51:29.600Z,-0.48
2023-02-01T06:53:58.377Z,-0.41
2023-02-01T06:56:27.621Z,-0.32
2023-02-01T06:58:56.423Z,-0.28
2023-02-01T07:01:27.555Z,-0.30
2023-02-01T07:04:01.669Z,-0.29
2023-02-01T07:09:42.315Z,0.01
2023-02-01T07:33:35.092Z,-0.27
2023-02-01T07:36:05.613Z,-0.21
2023-02-01T07:38:34.500Z,-0.05
2023-02-01T07:41:05.204Z,0.13
2023-02-01T07:43:36.925Z,0.31
2023-02-01T07:46:06.367Z,0.56
2023-02-01T07:48:35.830Z,0.77
2023-02-01T07:51:06.443Z,0.94
2023-02-01T07:53:35.974Z,1.03
2023-02-01T07:56:05.877Z,1.16
2023-02-01T07:58:35.148Z,1.43
2023-02-01T08:01:27.766Z,1.80
2023-02-01T08:04:06.517Z,2.26
2023-02-01T08:06:35.920Z,2.53
2023-02-01T08:09:05.731Z,2.51
2023-02-01T08:11:35.439Z,2.39
2023-02-01T08:14:05.704Z,2.41
2023-02-01T08:16:38.533Z,2.35
2023-02-01T08:19:07.610Z,2.33
2023-02-01T08:21:40.132Z,2.29
2023-02-01T08:24:10.301Z,2.17
2023-02-01T08:26:39.455Z,1.95
2023-02-01T08:29:09.041Z,1.68
2023-02-01T08:31:37.963Z,1.50
2023-02-01T08:34:07.020Z,1.45
2023-02-01T08:36:37.036Z,1.31
2023-02-01T08:39:10.239Z,1.10
2023-02-01T08:41:39.025Z,0.99
2023-02-01T08:44:08.152Z,1.00
2023-02-01T08:46:37.102Z,0.99
2023-02-01T08:49:06.505Z,0.95
2023-02-01T08:51:35.651Z,0.86
2023-02-01T08:54:04.798Z,0.84
2023-02-01T08:56:35.097Z,0.79
2023-02-01T08:59:04.522Z,0.79
2023-02-01T09:01:33.524Z,0.85
2023-02-01T09:04:02.595Z,1.02
2023-02-01T09:06:31.662Z,1.13
2023-02-01T09:09:02.804Z,1.12
2023-02-01T09:11:31.660Z,1.07
2023-02-01T09:14:01.659Z,1.08
2023-02-01T09:16:30.959Z,1.03
2023-02-01T09:19:23.941Z,0.99
2023-02-01T09:21:48.800Z,0.92
2023-02-01T09:24:17.855Z,0.91
2023-02-01T09:26:47.244Z,0.92
2023-02-01T09:29:16.325Z,0.93
2023-02-01T09:31:57.322Z,0.98
2023-02-01T09:34:32.423Z,1.15
2023-02-01T09:37:01.806Z,1.22
2023-02-01T09:39:33.499Z,1.23
2023-02-01T09:42:40.748Z,1.15
2023-02-01T09:45:31.862Z,1.18
2023-02-01T09:48:13.678Z,1.23
2023-02-01T09:50:43.676Z,1.11
2023-02-01T09:53:31.710Z,0.91
2023-02-01T09:56:07.709Z,0.71
2023-02-01T09:58:42.424Z,0.59
2023-02-01T10:01:16.985Z,0.65
2023-02-01T10:03:46.074Z,0.77
2023-02-01T14:32:59.664Z,1.45
2023-02-01T14:35:28.687Z,1.66
2023-02-01T14:38:03.929Z,1.75
2023-02-01T14:40:33.337Z,1.81
2023-02-01T14:43:02.532Z,1.81
2023-02-01T14:45:34.385Z,1.82
2023-02-01T14:48:08.316Z,1.84
2023-02-01T14:50:48.341Z,1.83
2023-02-01T14:53:21.588Z,1.82
2023-02-01T14:55:55.051Z,1.84
2023-02-01T14:58:35.814Z,1.89
2023-02-01T15:01:18.855Z,1.92
2023-02-01T15:04:00.920Z,1.93
2023-02-01T15:06:39.241Z,1.96
2023-02-01T15:09:35.499Z,1.96
2023-02-01T15:12:06.628Z,2.02
2023-02-01T15:14:39.915Z,2.06
2023-02-01T15:17:26.325Z,2.04
2023-02-01T15:19:55.674Z,2.02
2023-02-01T15:22:24.824Z,1.95
2023-02-01T15:24:55.232Z,1.91
2023-02-01T15:27:24.126Z,1.86
2023-02-01T15:29:53.114Z,1.89
2023-02-01T15:32:40.178Z,1.92
2023-02-01T15:35:37.435Z,1.90
2023-02-01T15:38:25.209Z,1.87
2023-02-01T15:40:58.196Z,1.91
2023-02-01T15:43:28.213Z,1.93
2023-02-01T15:45:58.854Z,1.92
2023-02-01T15:48:29.851Z,1.90
2023-02-01T15:50:58.925Z,1.91
2023-02-01T15:53:32.483Z,1.90
2023-02-01T15:56:03.014Z,1.82
2023-02-01T15:58:33.136Z,1.77
2023-02-01T16:01:05.860Z,1.74
2023-02-01T16:03:42.795Z,1.76
2023-02-01T16:06:23.045Z,1.79
2023-02-01T16:09:01.044Z,1.74
2023-02-01T16:11:31.982Z,1.75
2023-02-01T16:14:01.417Z,1.80
2023-02-01T16:16:30.933Z,1.85
2023-02-01T16:18:59.935Z,1.95
2023-02-01T16:21:29.073Z,2.01
2023-02-01T16:23:58.063Z,2.01
2023-02-01T16:26:27.203Z,2.02
2023-02-01T16:28:56.271Z,1.96
2023-02-01T16:31:30.081Z,1.91
2023-02-01T16:33:59.265Z,1.93
2023-02-01T16:36:29.409Z,1.84
2023-02-01T16:38:58.787Z,1.76
2023-02-01T16:41:29.325Z,1.75
2023-02-01T16:43:58.421Z,1.73
2023-02-01T16:46:28.234Z,1.73
2023-02-01T16:48:59.321Z,1.67
2023-02-01T16:51:32.036Z,1.59
2023-02-01T16:54:01.958Z,1.55
2023-02-01T16:56:32.939Z,1.49
2023-02-01T16:59:02.401Z,1.47
2023-02-01T17:01:31.396Z,1.44
2023-02-01T17:04:00.577Z,1.42
2023-02-01T17:06:33.738Z,1.36
2023-02-01T17:09:04.414Z,1.35
2023-02-01T17:11:35.385Z,1.40
2023-02-01T17:14:18.689Z,1.46
2023-02-01T17:16:48.759Z,1.42
2023-02-01T17:19:20.730Z,1.35
2023-02-01T17:21:52.922Z,1.33
2023-02-01T17:24:25.906Z,1.26
2023-02-01T17:26:58.912Z,1.12
2023-02-01T17:29:27.896Z,1.03
2023-02-01T17:31:57.235Z,1.01
2023-02-01T17:34:26.199Z,0.99
2023-02-01T17:36:55.690Z,0.94
2023-02-01T17:39:43.524Z,0.92
2023-02-01T17:42:12.830Z,0.87
2023-02-01T17:44:42.329Z,0.87
2023-02-01T17:47:11.525Z,0.91
2023-02-01T17:49:40.341Z,0.95
2023-02-01T17:52:15.243Z,0.98
2023-02-01T17:54:45.467Z,1.01
2023-02-01T17:57:15.275Z,1.02
2023-02-01T17:59:45.813Z,1.02
2023-02-01T18:02:19.920Z,0.98
2023-02-01T18:04:49.784Z,0.91
2023-02-01T18:07:18.937Z,0.88
2023-02-01T18:09:48.029Z,0.90
2023-02-01T18:12:22.680Z,0.91
2023-02-01T18:14:52.201Z,0.87
2023-02-01T18:17:22.276Z,0.81
2023-02-01T18:19:51.177Z,0.79
2023-02-01T18:22:21.474Z,0.80
2023-02-01T18:24:52.328Z,0.80
2023-02-01T18:27:21.425Z,0.83
2023-02-01T18:29:50.208Z,0.85
2023-02-01T18:32:19.507Z,0.85
2023-02-01T18:34:50.467Z,0.82
2023-02-01T18:37:19.528Z,0.82
2023-02-01T18:39:49.156Z,0.79
2023-02-01T18:42:18.441Z,0.76
2023-02-01T18:44:47.638Z,0.73
2023-02-01T18:47:16.529Z,0.72
2023-02-01T18:49:46.750Z,0.72
2023-02-01T18:52:34.686Z,0.80
2023-02-01T18:55:04.092Z,0.90
2023-02-01T18:57:34.012Z,0.96
2023-02-01T19:00:04.633Z,0.96
2023-02-01T23:53:49.193Z,0.44
2023-02-01T23:56:25.240Z,0.50
2023-02-01T23:58:54.843Z,0.50
